Airfield :
LOGIN :

Register | Disclaimer

   EN    FR    IT 

 










Legend :    VFR   Marginal VFR   IFR   Intensive IFR   Very Intensive IFR
Visi :
Ceiling :
>= 8 km
>= 3000ft
5 to 8 km
1000 to 3000 ft
1500m to 5 km
500 to 1000 ft
800 to 1500m
200 to 500 ft
< 800m
< 200 ft
Symbols :   Thunderstorms  Fog  Heavy snow  Heavy precipitations  Wind > 20 kt
SIGMETs :     Misc.  Thunderstorms  Icing  Turbulence  Mountain Waves  Volcanic Ashes






- Airport Elevation : 297 ft
- IATA code : UIP


LFRQ - Quimper Pluguffan

CURRENT METAR :
  • 120500Z AUTO 24014KT 9999 FEW008/// BKN015/// OVC023/// ///TCU 10/09 Q1003

EXPIRED METARs :
  • 120430Z AUTO 24017KT 6000 -RA BKN010/// BKN014/// BKN022/// ///CB 09/09 Q1004
  • 120400Z AUTO 23010KT 200V260 9999 -RA BKN012/// BKN019/// BKN024/// ///CB 09/08 Q1005
  • 120330Z AUTO 22009KT 8000 -RA FEW010/// BKN017/// BKN026/// ///TCU 09/08 Q1006
  • 120300Z AUTO 22007KT 8000 -RA SCT011/// SCT016/// BKN029/// ///TCU 08/08 Q1007
  • 120230Z AUTO 23009KT 9999 -RA BKN040/// BKN046/// BKN058/// ///TCU 08/07 Q1007

TAF TAF LFRQ
Valid from the 11 at 18:00 until the 12 at 18:00 UTC


111700Z 1118/1218 29013KT 9999 FEW025 SCT030 BKN050
TEMPO 1118/1120 29015G30KT 4000 SHRA SCT015CB BKN025
BECMG 1122/1124 27008KT RA BKN010
BECMG 1206/1208 20012G25KT 3000 RA OVC006
BECMG 1210/1213 28020G35KT
TEMPO 1212/1218 SHRA BKN012CB



MET'MAP, your aeronautical weather chart ! - Copyright ORBIFLY December 2007 - Disclaimer

ORBIFLY MET'MAP TEAM :

Programming & Development : Alexandra Zaïnal
Concept & original design : Baudouin d'Aumeries
Assistance for programming : Marc-Olivier Méhu
Technical & hardware support : Manuel Goepfert

Contact : metmap@orbifly.com




SOURCES & CREDITS :

   NOAA